sensor_id;sensor_type;location;lat;lon;timestamp;P1;durP1;ratioP1;P2;durP2;ratioP2
1925;SDS011;964;42.606;23.588;2022-09-09T00:00:18;7.13;;;6.47;;
1925;SDS011;964;42.606;23.588;2022-09-09T00:02:47;6.67;;;6.00;;
1925;SDS011;964;42.606;23.588;2022-09-09T00:05:23;6.53;;;5.90;;
1925;SDS011;964;42.606;23.588;2022-09-09T00:07:58;7.50;;;6.80;;
1925;SDS011;964;42.606;23.588;2022-09-09T00:10:29;8.57;;;7.30;;
1925;SDS011;964;42.606;23.588;2022-09-09T00:13:02;10.03;;;7.60;;
1925;SDS011;964;42.606;23.588;2022-09-09T00:15:43;9.27;;;6.97;;
1925;SDS011;964;42.606;23.588;2022-09-09T00:18:21;8.07;;;7.30;;
1925;SDS011;964;42.606;23.588;2022-09-09T00:20:54;8.13;;;7.47;;
1925;SDS011;964;42.606;23.588;2022-09-09T00:23:24;9.30;;;8.40;;
1925;SDS011;964;42.606;23.588;2022-09-09T00:25:57;9.13;;;8.30;;
1925;SDS011;964;42.606;23.588;2022-09-09T00:28:31;9.20;;;8.30;;
1925;SDS011;964;42.606;23.588;2022-09-09T00:31:08;8.93;;;8.00;;
1925;SDS011;964;42.606;23.588;2022-09-09T00:33:38;11.80;;;7.73;;
1925;SDS011;964;42.606;23.588;2022-09-09T00:36:09;11.27;;;7.50;;
1925;SDS011;964;42.606;23.588;2022-09-09T00:38:42;8.03;;;7.30;;
1925;SDS011;964;42.606;23.588;2022-09-09T00:41:14;9.00;;;7.47;;
1925;SDS011;964;42.606;23.588;2022-09-09T00:43:52;9.17;;;8.27;;
1925;SDS011;964;42.606;23.588;2022-09-09T00:46:37;8.63;;;7.83;;
1925;SDS011;964;42.606;23.588;2022-09-09T00:49:19;8.50;;;7.70;;
1925;SDS011;964;42.606;23.588;2022-09-09T00:51:55;11.23;;;7.60;;
1925;SDS011;964;42.606;23.588;2022-09-09T00:54:33;11.40;;;9.13;;
1925;SDS011;964;42.606;23.588;2022-09-09T00:57:12;8.77;;;7.70;;
1925;SDS011;964;42.606;23.588;2022-09-09T00:59:51;7.93;;;6.90;;
1925;SDS011;964;42.606;23.588;2022-09-09T01:02:26;10.60;;;8.53;;
1925;SDS011;964;42.606;23.588;2022-09-09T01:04:55;8.80;;;7.60;;
1925;SDS011;964;42.606;23.588;2022-09-09T01:07:30;10.13;;;7.50;;
1925;SDS011;964;42.606;23.588;2022-09-09T01:09:57;11.43;;;7.40;;
1925;SDS011;964;42.606;23.588;2022-09-09T01:12:28;9.20;;;7.50;;
1925;SDS011;964;42.606;23.588;2022-09-09T01:15:03;7.83;;;7.03;;
1925;SDS011;964;42.606;23.588;2022-09-09T01:17:39;9.47;;;8.00;;
1925;SDS011;964;42.606;23.588;2022-09-09T01:20:16;11.93;;;8.10;;
1925;SDS011;964;42.606;23.588;2022-09-09T01:22:52;8.30;;;7.40;;
1925;SDS011;964;42.606;23.588;2022-09-09T01:28:35;8.37;;;7.57;;
1925;SDS011;964;42.606;23.588;2022-09-09T01:31:04;6.60;;;6.10;;
1925;SDS011;964;42.606;23.588;2022-09-09T01:33:35;8.20;;;7.40;;
1925;SDS011;964;42.606;23.588;2022-09-09T01:36:03;7.67;;;6.30;;
1925;SDS011;964;42.606;23.588;2022-09-09T01:38:34;7.60;;;6.87;;
1925;SDS011;964;42.606;23.588;2022-09-09T01:41:03;7.90;;;5.80;;
1925;SDS011;964;42.606;23.588;2022-09-09T01:43:31;7.60;;;6.20;;
1925;SDS011;964;42.606;23.588;2022-09-09T01:45:59;8.53;;;6.30;;
1925;SDS011;964;42.606;23.588;2022-09-09T01:48:27;7.30;;;6.60;;
1925;SDS011;964;42.606;23.588;2022-09-09T01:50:55;6.93;;;6.30;;
1925;SDS011;964;42.606;23.588;2022-09-09T01:53:22;8.53;;;6.77;;
1925;SDS011;964;42.606;23.588;2022-09-09T01:55:52;6.70;;;5.63;;
1925;SDS011;964;42.606;23.588;2022-09-09T01:58:31;8.70;;;6.70;;
1925;SDS011;964;42.606;23.588;2022-09-09T02:01:06;7.37;;;6.10;;
1925;SDS011;964;42.606;23.588;2022-09-09T02:03:42;7.00;;;5.87;;
1925;SDS011;964;42.606;23.588;2022-09-09T02:06:14;6.37;;;5.77;;
1925;SDS011;964;42.606;23.588;2022-09-09T02:08:52;8.50;;;7.17;;
1925;SDS011;964;42.606;23.588;2022-09-09T02:11:23;7.77;;;6.97;;
1925;SDS011;964;42.606;23.588;2022-09-09T02:13:53;11.20;;;7.17;;
1925;SDS011;964;42.606;23.588;2022-09-09T02:16:24;7.77;;;7.03;;
1925;SDS011;964;42.606;23.588;2022-09-09T02:18:55;7.60;;;6.80;;
1925;SDS011;964;42.606;23.588;2022-09-09T02:21:27;7.33;;;6.63;;
1925;SDS011;964;42.606;23.588;2022-09-09T02:23:56;6.90;;;6.23;;
1925;SDS011;964;42.606;23.588;2022-09-09T02:26:25;6.93;;;6.23;;
1925;SDS011;964;42.606;23.588;2022-09-09T02:28:55;7.30;;;6.70;;
1925;SDS011;964;42.606;23.588;2022-09-09T02:31:25;6.90;;;6.30;;
1925;SDS011;964;42.606;23.588;2022-09-09T02:33:53;7.47;;;6.33;;
1925;SDS011;964;42.606;23.588;2022-09-09T02:36:24;6.73;;;6.13;;
1925;SDS011;964;42.606;23.588;2022-09-09T02:38:54;7.20;;;6.50;;
1925;SDS011;964;42.606;23.588;2022-09-09T02:41:22;7.43;;;6.40;;
1925;SDS011;964;42.606;23.588;2022-09-09T02:43:55;6.30;;;5.80;;
1925;SDS011;964;42.606;23.588;2022-09-09T02:46:35;9.37;;;6.20;;
1925;SDS011;964;42.606;23.588;2022-09-09T02:49:09;6.90;;;6.17;;
1925;SDS011;964;42.606;23.588;2022-09-09T02:51:39;7.53;;;6.47;;
1925;SDS011;964;42.606;23.588;2022-09-09T02:54:15;7.50;;;6.53;;
1925;SDS011;964;42.606;23.588;2022-09-09T02:56:47;8.73;;;6.40;;
1925;SDS011;964;42.606;23.588;2022-09-09T02:59:19;7.80;;;6.60;;
1925;SDS011;964;42.606;23.588;2022-09-09T03:01:47;7.57;;;6.80;;
1925;SDS011;964;42.606;23.588;2022-09-09T03:04:13;8.37;;;6.80;;
1925;SDS011;964;42.606;23.588;2022-09-09T03:06:40;8.53;;;7.10;;
1925;SDS011;964;42.606;23.588;2022-09-09T03:09:07;12.63;;;7.73;;
1925;SDS011;964;42.606;23.588;2022-09-09T03:11:35;11.30;;;7.63;;
1925;SDS011;964;42.606;23.588;2022-09-09T03:14:03;8.63;;;7.83;;
1925;SDS011;964;42.606;23.588;2022-09-09T03:16:32;7.30;;;6.60;;
1925;SDS011;964;42.606;23.588;2022-09-09T03:18:59;7.67;;;6.97;;
1925;SDS011;964;42.606;23.588;2022-09-09T03:21:26;11.53;;;7.00;;
1925;SDS011;964;42.606;23.588;2022-09-09T03:23:53;9.17;;;6.93;;
1925;SDS011;964;42.606;23.588;2022-09-09T03:26:19;7.63;;;6.03;;
1925;SDS011;964;42.606;23.588;2022-09-09T03:28:46;6.67;;;6.03;;
1925;SDS011;964;42.606;23.588;2022-09-09T03:31:14;8.03;;;6.33;;
1925;SDS011;964;42.606;23.588;2022-09-09T03:33:42;7.77;;;6.00;;
1925;SDS011;964;42.606;23.588;2022-09-09T03:36:10;9.60;;;6.60;;
1925;SDS011;964;42.606;23.588;2022-09-09T03:38:37;9.70;;;6.93;;
1925;SDS011;964;42.606;23.588;2022-09-09T03:41:04;7.83;;;6.37;;
1925;SDS011;964;42.606;23.588;2022-09-09T03:43:33;7.13;;;6.43;;
1925;SDS011;964;42.606;23.588;2022-09-09T03:46:00;6.87;;;6.17;;
1925;SDS011;964;42.606;23.588;2022-09-09T03:48:26;8.57;;;7.20;;
1925;SDS011;964;42.606;23.588;2022-09-09T03:50:55;9.90;;;7.60;;
1925;SDS011;964;42.606;23.588;2022-09-09T03:53:25;8.93;;;7.00;;
1925;SDS011;964;42.606;23.588;2022-09-09T03:55:53;7.60;;;6.63;;
1925;SDS011;964;42.606;23.588;2022-09-09T03:58:25;8.97;;;7.40;;
1925;SDS011;964;42.606;23.588;2022-09-09T04:00:53;8.50;;;7.10;;
1925;SDS011;964;42.606;23.588;2022-09-09T04:03:20;7.80;;;7.10;;
1925;SDS011;964;42.606;23.588;2022-09-09T04:05:49;9.00;;;8.10;;
1925;SDS011;964;42.606;23.588;2022-09-09T04:08:18;9.57;;;7.53;;
1925;SDS011;964;42.606;23.588;2022-09-09T04:10:45;8.60;;;7.80;;
1925;SDS011;964;42.606;23.588;2022-09-09T04:13:12;10.43;;;8.83;;
1925;SDS011;964;42.606;23.588;2022-09-09T04:15:40;13.47;;;8.63;;
1925;SDS011;964;42.606;23.588;2022-09-09T04:18:07;9.67;;;8.07;;
1925;SDS011;964;42.606;23.588;2022-09-09T04:20:34;8.50;;;7.70;;
1925;SDS011;964;42.606;23.588;2022-09-09T04:23:00;8.83;;;7.93;;
1925;SDS011;964;42.606;23.588;2022-09-09T04:25:29;8.90;;;8.10;;
1925;SDS011;964;42.606;23.588;2022-09-09T04:27:57;10.20;;;9.20;;
1925;SDS011;964;42.606;23.588;2022-09-09T04:30:24;10.70;;;9.70;;
1925;SDS011;964;42.606;23.588;2022-09-09T04:32:52;14.33;;;10.00;;
1925;SDS011;964;42.606;23.588;2022-09-09T04:35:19;18.13;;;9.10;;
1925;SDS011;964;42.606;23.588;2022-09-09T04:37:46;13.77;;;9.67;;
1925;SDS011;964;42.606;23.588;2022-09-09T04:40:12;13.70;;;9.43;;
1925;SDS011;964;42.606;23.588;2022-09-09T04:42:41;18.10;;;10.07;;
1925;SDS011;964;42.606;23.588;2022-09-09T04:45:09;10.03;;;8.90;;
1925;SDS011;964;42.606;23.588;2022-09-09T04:47:38;16.67;;;9.67;;
1925;SDS011;964;42.606;23.588;2022-09-09T04:50:06;14.67;;;9.30;;
1925;SDS011;964;42.606;23.588;2022-09-09T04:52:34;9.90;;;8.73;;
1925;SDS011;964;42.606;23.588;2022-09-09T04:55:02;9.77;;;7.37;;
1925;SDS011;964;42.606;23.588;2022-09-09T04:57:30;11.03;;;7.80;;
1925;SDS011;964;42.606;23.588;2022-09-09T04:59:59;10.83;;;6.50;;
1925;SDS011;964;42.606;23.588;2022-09-09T05:02:26;13.93;;;7.50;;
1925;SDS011;964;42.606;23.588;2022-09-09T05:04:55;25.03;;;10.30;;
1925;SDS011;964;42.606;23.588;2022-09-09T05:07:22;11.17;;;8.63;;
1925;SDS011;964;42.606;23.588;2022-09-09T05:09:49;9.90;;;6.80;;
1925;SDS011;964;42.606;23.588;2022-09-09T05:12:16;9.10;;;7.17;;
1925;SDS011;964;42.606;23.588;2022-09-09T05:14:42;9.30;;;7.13;;
1925;SDS011;964;42.606;23.588;2022-09-09T05:17:11;7.00;;;6.17;;
1925;SDS011;964;42.606;23.588;2022-09-09T05:19:38;7.03;;;5.93;;
1925;SDS011;964;42.606;23.588;2022-09-09T05:22:04;7.70;;;6.10;;
1925;SDS011;964;42.606;23.588;2022-09-09T05:24:32;7.33;;;6.00;;
1925;SDS011;964;42.606;23.588;2022-09-09T05:26:59;6.63;;;6.03;;
1925;SDS011;964;42.606;23.588;2022-09-09T05:29:27;7.97;;;6.20;;
1925;SDS011;964;42.606;23.588;2022-09-09T05:31:54;6.93;;;6.33;;
1925;SDS011;964;42.606;23.588;2022-09-09T05:34:22;13.37;;;6.43;;
1925;SDS011;964;42.606;23.588;2022-09-09T05:36:49;6.13;;;5.17;;
1925;SDS011;964;42.606;23.588;2022-09-09T05:39:16;14.37;;;6.67;;
1925;SDS011;964;42.606;23.588;2022-09-09T05:41:43;7.13;;;6.27;;
1925;SDS011;964;42.606;23.588;2022-09-09T05:44:10;6.80;;;6.10;;
1925;SDS011;964;42.606;23.588;2022-09-09T05:46:36;7.40;;;5.90;;
1925;SDS011;964;42.606;23.588;2022-09-09T05:49:03;9.47;;;5.80;;
1925;SDS011;964;42.606;23.588;2022-09-09T05:51:32;5.30;;;4.80;;
1925;SDS011;964;42.606;23.588;2022-09-09T05:53:59;5.03;;;4.63;;
1925;SDS011;964;42.606;23.588;2022-09-09T05:56:26;10.03;;;5.40;;
1925;SDS011;964;42.606;23.588;2022-09-09T05:58:55;6.03;;;5.20;;
1925;SDS011;964;42.606;23.588;2022-09-09T06:01:23;5.40;;;4.90;;
1925;SDS011;964;42.606;23.588;2022-09-09T06:03:51;7.80;;;5.83;;
1925;SDS011;964;42.606;23.588;2022-09-09T06:06:18;6.10;;;5.10;;
1925;SDS011;964;42.606;23.588;2022-09-09T06:08:49;5.63;;;5.13;;
1925;SDS011;964;42.606;23.588;2022-09-09T06:11:18;6.20;;;5.60;;
1925;SDS011;964;42.606;23.588;2022-09-09T06:13:46;5.30;;;4.80;;
1925;SDS011;964;42.606;23.588;2022-09-09T06:16:16;5.60;;;5.03;;
1925;SDS011;964;42.606;23.588;2022-09-09T06:18:44;5.73;;;5.23;;
1925;SDS011;964;42.606;23.588;2022-09-09T06:21:14;5.20;;;4.70;;
1925;SDS011;964;42.606;23.588;2022-09-09T06:23:43;5.07;;;4.67;;
1925;SDS011;964;42.606;23.588;2022-09-09T06:26:12;6.47;;;4.97;;
1925;SDS011;964;42.606;23.588;2022-09-09T06:28:42;21.13;;;6.10;;
1925;SDS011;964;42.606;23.588;2022-09-09T06:31:10;5.77;;;5.17;;
1925;SDS011;964;42.606;23.588;2022-09-09T06:33:38;5.27;;;4.87;;
1925;SDS011;964;42.606;23.588;2022-09-09T06:36:07;5.50;;;5.00;;
1925;SDS011;964;42.606;23.588;2022-09-09T06:38:36;5.90;;;5.30;;
1925;SDS011;964;42.606;23.588;2022-09-09T06:41:03;9.80;;;5.63;;
1925;SDS011;964;42.606;23.588;2022-09-09T06:43:32;8.80;;;4.67;;
1925;SDS011;964;42.606;23.588;2022-09-09T06:46:00;4.80;;;4.40;;
1925;SDS011;964;42.606;23.588;2022-09-09T06:48:29;6.67;;;5.17;;
1925;SDS011;964;42.606;23.588;2022-09-09T06:51:03;6.70;;;4.20;;
1925;SDS011;964;42.606;23.588;2022-09-09T06:53:31;4.40;;;4.00;;
1925;SDS011;964;42.606;23.588;2022-09-09T06:55:59;6.20;;;5.03;;
1925;SDS011;964;42.606;23.588;2022-09-09T06:58:27;5.47;;;4.97;;
1925;SDS011;964;42.606;23.588;2022-09-09T07:01:02;4.87;;;4.47;;
1925;SDS011;964;42.606;23.588;2022-09-09T07:03:29;5.37;;;4.87;;
1925;SDS011;964;42.606;23.588;2022-09-09T07:05:56;4.87;;;4.47;;
1925;SDS011;964;42.606;23.588;2022-09-09T07:08:24;4.90;;;4.47;;
1925;SDS011;964;42.606;23.588;2022-09-09T07:10:51;5.27;;;4.80;;
1925;SDS011;964;42.606;23.588;2022-09-09T07:13:19;5.90;;;5.10;;
1925;SDS011;964;42.606;23.588;2022-09-09T07:15:51;7.03;;;4.33;;
1925;SDS011;964;42.606;23.588;2022-09-09T07:18:19;12.70;;;4.97;;
1925;SDS011;964;42.606;23.588;2022-09-09T07:20:52;5.57;;;5.07;;
1925;SDS011;964;42.606;23.588;2022-09-09T07:23:20;9.73;;;5.40;;
1925;SDS011;964;42.606;23.588;2022-09-09T07:25:47;4.53;;;4.13;;
1925;SDS011;964;42.606;23.588;2022-09-09T07:28:14;5.57;;;4.90;;
1925;SDS011;964;42.606;23.588;2022-09-09T07:30:40;5.50;;;4.80;;
1925;SDS011;964;42.606;23.588;2022-09-09T07:33:08;4.87;;;4.10;;
1925;SDS011;964;42.606;23.588;2022-09-09T07:35:37;4.63;;;4.23;;
1925;SDS011;964;42.606;23.588;2022-09-09T07:38:04;7.13;;;4.70;;
1925;SDS011;964;42.606;23.588;2022-09-09T07:40:31;4.80;;;4.40;;
1925;SDS011;964;42.606;23.588;2022-09-09T07:42:58;5.13;;;4.60;;
1925;SDS011;964;42.606;23.588;2022-09-09T07:45:25;5.47;;;4.67;;
1925;SDS011;964;42.606;23.588;2022-09-09T07:47:53;7.03;;;4.10;;
1925;SDS011;964;42.606;23.588;2022-09-09T07:50:21;6.03;;;4.53;;
1925;SDS011;964;42.606;23.588;2022-09-09T07:52:50;5.07;;;4.67;;
1925;SDS011;964;42.606;23.588;2022-09-09T07:55:17;7.60;;;4.20;;
1925;SDS011;964;42.606;23.588;2022-09-09T07:57:44;4.63;;;4.23;;
1925;SDS011;964;42.606;23.588;2022-09-09T08:00:11;5.17;;;3.90;;
1925;SDS011;964;42.606;23.588;2022-09-09T08:02:39;4.47;;;4.07;;
1925;SDS011;964;42.606;23.588;2022-09-09T08:05:06;5.20;;;4.70;;
1925;SDS011;964;42.606;23.588;2022-09-09T08:07:33;4.73;;;4.10;;
1925;SDS011;964;42.606;23.588;2022-09-09T08:10:02;5.77;;;4.60;;
1925;SDS011;964;42.606;23.588;2022-09-09T08:12:29;4.53;;;4.13;;
1925;SDS011;964;42.606;23.588;2022-09-09T08:14:57;4.27;;;3.87;;
1925;SDS011;964;42.606;23.588;2022-09-09T08:17:24;4.80;;;4.30;;
1925;SDS011;964;42.606;23.588;2022-09-09T08:19:50;5.03;;;4.63;;
1925;SDS011;964;42.606;23.588;2022-09-09T08:22:19;4.93;;;4.50;;
1925;SDS011;964;42.606;23.588;2022-09-09T08:24:47;5.27;;;4.77;;
1925;SDS011;964;42.606;23.588;2022-09-09T08:27:15;4.47;;;4.07;;
1925;SDS011;964;42.606;23.588;2022-09-09T08:29:41;5.43;;;4.00;;
1925;SDS011;964;42.606;23.588;2022-09-09T08:32:08;5.40;;;4.73;;
1925;SDS011;964;42.606;23.588;2022-09-09T08:34:35;7.40;;;4.27;;
1925;SDS011;964;42.606;23.588;2022-09-09T08:37:01;5.10;;;4.70;;
1925;SDS011;964;42.606;23.588;2022-09-09T08:39:28;5.20;;;4.70;;
1925;SDS011;964;42.606;23.588;2022-09-09T08:41:58;5.00;;;4.60;;
1925;SDS011;964;42.606;23.588;2022-09-09T08:44:41;5.37;;;4.87;;
1925;SDS011;964;42.606;23.588;2022-09-09T08:47:24;6.60;;;4.80;;
1925;SDS011;964;42.606;23.588;2022-09-09T08:50:02;6.40;;;4.60;;
1925;SDS011;964;42.606;23.588;2022-09-09T08:52:41;5.13;;;4.73;;
1925;SDS011;964;42.606;23.588;2022-09-09T08:55:20;4.50;;;4.10;;
1925;SDS011;964;42.606;23.588;2022-09-09T08:57:51;5.27;;;4.63;;
1925;SDS011;964;42.606;23.588;2022-09-09T09:00:22;4.80;;;3.97;;
1925;SDS011;964;42.606;23.588;2022-09-09T09:02:54;4.80;;;4.47;;
1925;SDS011;964;42.606;23.588;2022-09-09T09:05:31;8.93;;;5.07;;
1925;SDS011;964;42.606;23.588;2022-09-09T09:08:05;5.17;;;4.70;;
1925;SDS011;964;42.606;23.588;2022-09-09T09:10:42;5.07;;;4.57;;
1925;SDS011;964;42.606;23.588;2022-09-09T09:13:14;5.03;;;4.33;;
1925;SDS011;964;42.606;23.588;2022-09-09T09:15:45;6.80;;;5.07;;
1925;SDS011;964;42.606;23.588;2022-09-09T09:18:15;5.67;;;5.07;;
1925;SDS011;964;42.606;23.588;2022-09-09T09:20:46;10.30;;;5.53;;
1925;SDS011;964;42.606;23.588;2022-09-09T09:23:21;6.47;;;4.77;;
1925;SDS011;964;42.606;23.588;2022-09-09T09:25:49;5.17;;;4.67;;
1925;SDS011;964;42.606;23.588;2022-09-09T09:28:18;5.77;;;4.53;;
1925;SDS011;964;42.606;23.588;2022-09-09T09:30:52;5.93;;;5.27;;
1925;SDS011;964;42.606;23.588;2022-09-09T09:33:23;6.60;;;4.80;;
1925;SDS011;964;42.606;23.588;2022-09-09T09:35:54;4.97;;;4.47;;
1925;SDS011;964;42.606;23.588;2022-09-09T09:38:21;6.87;;;4.80;;
1925;SDS011;964;42.606;23.588;2022-09-09T09:40:50;11.80;;;5.13;;
1925;SDS011;964;42.606;23.588;2022-09-09T09:43:24;5.73;;;5.23;;
1925;SDS011;964;42.606;23.588;2022-09-09T09:45:54;6.63;;;5.40;;
1925;SDS011;964;42.606;23.588;2022-09-09T09:48:23;5.63;;;5.13;;
1925;SDS011;964;42.606;23.588;2022-09-09T09:50:51;5.50;;;5.00;;
1925;SDS011;964;42.606;23.588;2022-09-09T09:53:20;8.03;;;4.90;;
1925;SDS011;964;42.606;23.588;2022-09-09T09:55:53;6.00;;;4.93;;
1925;SDS011;964;42.606;23.588;2022-09-09T09:58:23;6.27;;;4.90;;
1925;SDS011;964;42.606;23.588;2022-09-09T10:00:52;5.47;;;4.93;;
1925;SDS011;964;42.606;23.588;2022-09-09T10:03:25;5.23;;;4.73;;
1925;SDS011;964;42.606;23.588;2022-09-09T10:05:53;6.47;;;4.80;;
1925;SDS011;964;42.606;23.588;2022-09-09T10:08:22;4.67;;;4.27;;
1925;SDS011;964;42.606;23.588;2022-09-09T10:10:59;6.37;;;5.00;;
1925;SDS011;964;42.606;23.588;2022-09-09T10:13:36;4.57;;;4.17;;
1925;SDS011;964;42.606;23.588;2022-09-09T10:16:17;5.30;;;4.90;;
1925;SDS011;964;42.606;23.588;2022-09-09T10:19:01;5.13;;;4.73;;
1925;SDS011;964;42.606;23.588;2022-09-09T10:21:34;5.00;;;4.60;;
1925;SDS011;964;42.606;23.588;2022-09-09T10:24:36;5.60;;;5.10;;
1925;SDS011;964;42.606;23.588;2022-09-09T10:27:16;9.20;;;5.23;;
1925;SDS011;964;42.606;23.588;2022-09-09T10:29:53;5.07;;;4.57;;
1925;SDS011;964;42.606;23.588;2022-09-09T10:32:37;5.90;;;4.73;;
1925;SDS011;964;42.606;23.588;2022-09-09T10:35:12;6.33;;;5.30;;
1925;SDS011;964;42.606;23.588;2022-09-09T10:41:23;7.20;;;5.17;;
1925;SDS011;964;42.606;23.588;2022-09-09T10:44:11;4.83;;;4.43;;
1925;SDS011;964;42.606;23.588;2022-09-09T10:46:48;5.97;;;5.40;;
1925;SDS011;964;42.606;23.588;2022-09-09T10:49:30;6.27;;;5.77;;
1925;SDS011;964;42.606;23.588;2022-09-09T10:52:11;8.07;;;4.87;;
1925;SDS011;964;42.606;23.588;2022-09-09T10:54:47;4.87;;;4.47;;
1925;SDS011;964;42.606;23.588;2022-09-09T10:57:25;5.20;;;4.70;;
1925;SDS011;964;42.606;23.588;2022-09-09T10:59:57;5.60;;;5.10;;
1925;SDS011;964;42.606;23.588;2022-09-09T11:02:31;5.40;;;5.03;;
1925;SDS011;964;42.606;23.588;2022-09-09T11:05:01;5.77;;;5.17;;
1925;SDS011;964;42.606;23.588;2022-09-09T11:07:36;5.60;;;5.03;;
1925;SDS011;964;42.606;23.588;2022-09-09T11:10:14;5.63;;;5.03;;
1925;SDS011;964;42.606;23.588;2022-09-09T11:12:48;7.13;;;5.17;;
1925;SDS011;964;42.606;23.588;2022-09-09T11:15:17;5.80;;;5.20;;
1925;SDS011;964;42.606;23.588;2022-09-09T11:17:50;5.80;;;5.37;;
1925;SDS011;964;42.606;23.588;2022-09-09T11:20:23;6.07;;;5.63;;
1925;SDS011;964;42.606;23.588;2022-09-09T11:22:52;5.97;;;5.47;;
1925;SDS011;964;42.606;23.588;2022-09-09T11:25:26;7.27;;;5.57;;
1925;SDS011;964;42.606;23.588;2022-09-09T11:30:52;7.93;;;5.63;;
1925;SDS011;964;42.606;23.588;2022-09-09T11:33:45;10.43;;;6.20;;
1925;SDS011;964;42.606;23.588;2022-09-09T11:36:28;8.50;;;5.83;;
1925;SDS011;964;42.606;23.588;2022-09-09T11:39:14;7.20;;;5.90;;
1925;SDS011;964;42.606;23.588;2022-09-09T11:42:05;10.33;;;6.27;;
1925;SDS011;964;42.606;23.588;2022-09-09T11:44:32;6.90;;;5.57;;
1925;SDS011;964;42.606;23.588;2022-09-09T11:46:59;9.50;;;5.83;;
1925;SDS011;964;42.606;23.588;2022-09-09T11:49:27;16.00;;;6.43;;
1925;SDS011;964;42.606;23.588;2022-09-09T11:51:57;7.63;;;5.60;;
1925;SDS011;964;42.606;23.588;2022-09-09T11:54:28;8.10;;;6.37;;
1925;SDS011;964;42.606;23.588;2022-09-09T11:56:57;7.20;;;5.93;;
1925;SDS011;964;42.606;23.588;2022-09-09T11:59:25;6.50;;;6.00;;
1925;SDS011;964;42.606;23.588;2022-09-09T12:01:55;9.83;;;5.53;;
1925;SDS011;964;42.606;23.588;2022-09-09T12:04:33;6.43;;;5.73;;
1925;SDS011;964;42.606;23.588;2022-09-09T12:07:21;5.83;;;5.33;;
1925;SDS011;964;42.606;23.588;2022-09-09T12:09:58;6.17;;;5.60;;
1925;SDS011;964;42.606;23.588;2022-09-09T12:12:28;6.00;;;5.50;;
1925;SDS011;964;42.606;23.588;2022-09-09T12:15:00;7.13;;;5.90;;
1925;SDS011;964;42.606;23.588;2022-09-09T12:17:43;9.30;;;5.83;;
1925;SDS011;964;42.606;23.588;2022-09-09T12:20:12;6.80;;;5.30;;
1925;SDS011;964;42.606;23.588;2022-09-09T12:22:45;7.23;;;5.73;;
1925;SDS011;964;42.606;23.588;2022-09-09T12:25:23;7.43;;;5.80;;
1925;SDS011;964;42.606;23.588;2022-09-09T12:28:00;9.80;;;6.13;;
1925;SDS011;964;42.606;23.588;2022-09-09T12:30:32;10.00;;;7.17;;
1925;SDS011;964;42.606;23.588;2022-09-09T12:33:08;7.83;;;6.90;;
1925;SDS011;964;42.606;23.588;2022-09-09T12:35:37;12.00;;;6.90;;
1925;SDS011;964;42.606;23.588;2022-09-09T12:38:09;6.63;;;5.60;;
1925;SDS011;964;42.606;23.588;2022-09-09T12:40:41;8.17;;;6.90;;
1925;SDS011;964;42.606;23.588;2022-09-09T12:43:16;6.60;;;5.93;;
1925;SDS011;964;42.606;23.588;2022-09-09T12:45:46;7.43;;;6.07;;
1925;SDS011;964;42.606;23.588;2022-09-09T12:48:15;8.30;;;6.37;;
1925;SDS011;964;42.606;23.588;2022-09-09T12:50:45;10.03;;;6.57;;
1925;SDS011;964;42.606;23.588;2022-09-09T12:53:16;7.10;;;6.40;;
1925;SDS011;964;42.606;23.588;2022-09-09T12:55:49;7.20;;;5.97;;
1925;SDS011;964;42.606;23.588;2022-09-09T12:58:18;6.27;;;5.60;;
1925;SDS011;964;42.606;23.588;2022-09-09T13:00:48;8.70;;;7.30;;
1925;SDS011;964;42.606;23.588;2022-09-09T13:03:17;6.03;;;5.43;;
1925;SDS011;964;42.606;23.588;2022-09-09T13:05:46;6.03;;;5.53;;
1925;SDS011;964;42.606;23.588;2022-09-09T13:08:13;6.87;;;5.67;;
1925;SDS011;964;42.606;23.588;2022-09-09T13:10:46;8.63;;;6.53;;
1925;SDS011;964;42.606;23.588;2022-09-09T13:13:20;6.83;;;6.10;;
1925;SDS011;964;42.606;23.588;2022-09-09T13:15:49;8.67;;;6.10;;
1925;SDS011;964;42.606;23.588;2022-09-09T13:18:19;6.70;;;6.03;;
1925;SDS011;964;42.606;23.588;2022-09-09T13:20:48;8.10;;;6.43;;
1925;SDS011;964;42.606;23.588;2022-09-09T13:23:18;6.57;;;5.97;;
1925;SDS011;964;42.606;23.588;2022-09-09T13:25:53;8.13;;;5.90;;
1925;SDS011;964;42.606;23.588;2022-09-09T13:28:22;7.07;;;6.37;;
1925;SDS011;964;42.606;23.588;2022-09-09T13:30:57;7.20;;;6.23;;
1925;SDS011;964;42.606;23.588;2022-09-09T13:33:31;6.80;;;6.07;;
1925;SDS011;964;42.606;23.588;2022-09-09T13:36:00;7.80;;;6.23;;
1925;SDS011;964;42.606;23.588;2022-09-09T13:38:31;9.90;;;6.87;;
1925;SDS011;964;42.606;23.588;2022-09-09T13:41:02;7.13;;;6.13;;
1925;SDS011;964;42.606;23.588;2022-09-09T13:43:31;9.67;;;6.87;;
1925;SDS011;964;42.606;23.588;2022-09-09T13:46:04;7.30;;;6.40;;
1925;SDS011;964;42.606;23.588;2022-09-09T13:48:32;7.67;;;6.83;;
1925;SDS011;964;42.606;23.588;2022-09-09T13:51:00;14.70;;;7.10;;
1925;SDS011;964;42.606;23.588;2022-09-09T13:53:28;9.17;;;6.90;;
1925;SDS011;964;42.606;23.588;2022-09-09T13:55:56;11.63;;;7.13;;
1925;SDS011;964;42.606;23.588;2022-09-09T13:58:24;12.57;;;6.80;;
1925;SDS011;964;42.606;23.588;2022-09-09T14:00:51;7.10;;;6.40;;
1925;SDS011;964;42.606;23.588;2022-09-09T14:03:18;13.20;;;6.90;;
1925;SDS011;964;42.606;23.588;2022-09-09T14:05:46;14.67;;;7.50;;
1925;SDS011;964;42.606;23.588;2022-09-09T14:08:20;9.27;;;8.03;;
1925;SDS011;964;42.606;23.588;2022-09-09T14:10:50;12.57;;;8.23;;
1925;SDS011;964;42.606;23.588;2022-09-09T14:13:18;8.10;;;6.30;;
1925;SDS011;964;42.606;23.588;2022-09-09T14:15:47;9.00;;;6.73;;
1925;SDS011;964;42.606;23.588;2022-09-09T14:18:14;10.07;;;7.37;;
1925;SDS011;964;42.606;23.588;2022-09-09T14:20:41;9.73;;;6.47;;
1925;SDS011;964;42.606;23.588;2022-09-09T14:23:09;9.03;;;7.00;;
1925;SDS011;964;42.606;23.588;2022-09-09T14:25:39;7.90;;;7.20;;
1925;SDS011;964;42.606;23.588;2022-09-09T14:28:08;9.03;;;6.63;;
1925;SDS011;964;42.606;23.588;2022-09-09T14:30:38;8.13;;;6.40;;
1925;SDS011;964;42.606;23.588;2022-09-09T14:33:06;7.37;;;6.77;;
1925;SDS011;964;42.606;23.588;2022-09-09T14:35:33;9.83;;;7.47;;
1925;SDS011;964;42.606;23.588;2022-09-09T14:38:01;8.00;;;6.83;;
1925;SDS011;964;42.606;23.588;2022-09-09T14:40:28;15.93;;;7.33;;
1925;SDS011;964;42.606;23.588;2022-09-09T14:42:55;7.63;;;5.80;;
1925;SDS011;964;42.606;23.588;2022-09-09T14:45:22;12.27;;;6.70;;
1925;SDS011;964;42.606;23.588;2022-09-09T14:47:51;7.03;;;6.40;;
1925;SDS011;964;42.606;23.588;2022-09-09T14:50:18;11.90;;;6.50;;
1925;SDS011;964;42.606;23.588;2022-09-09T14:52:45;6.43;;;5.73;;
1925;SDS011;964;42.606;23.588;2022-09-09T14:55:11;6.70;;;6.00;;
1925;SDS011;964;42.606;23.588;2022-09-09T14:57:38;7.37;;;5.90;;
1925;SDS011;964;42.606;23.588;2022-09-09T15:00:06;7.00;;;5.30;;
1925;SDS011;964;42.606;23.588;2022-09-09T15:02:34;9.38;;;5.75;;
1925;SDS011;964;42.606;23.588;2022-09-09T15:05:05;7.88;;;5.57;;
1925;SDS011;964;42.606;23.588;2022-09-09T15:07:32;6.00;;;5.40;;
1925;SDS011;964;42.606;23.588;2022-09-09T15:09:59;6.32;;;4.85;;
1925;SDS011;964;42.606;23.588;2022-09-09T15:12:25;6.63;;;4.90;;
1925;SDS011;964;42.606;23.588;2022-09-09T15:14:53;6.65;;;5.57;;
1925;SDS011;964;42.606;23.588;2022-09-09T15:17:20;8.40;;;5.70;;
1925;SDS011;964;42.606;23.588;2022-09-09T15:19:47;10.27;;;7.20;;
1925;SDS011;964;42.606;23.588;2022-09-09T15:22:16;7.10;;;6.07;;
1925;SDS011;964;42.606;23.588;2022-09-09T15:24:44;7.50;;;6.70;;
1925;SDS011;964;42.606;23.588;2022-09-09T15:27:10;6.50;;;5.43;;
1925;SDS011;964;42.606;23.588;2022-09-09T15:29:39;11.47;;;8.20;;
1925;SDS011;964;42.606;23.588;2022-09-09T15:32:06;8.57;;;6.77;;
1925;SDS011;964;42.606;23.588;2022-09-09T15:34:33;10.10;;;7.27;;
1925;SDS011;964;42.606;23.588;2022-09-09T15:37:00;12.13;;;6.43;;
1925;SDS011;964;42.606;23.588;2022-09-09T15:39:28;8.57;;;6.93;;
1925;SDS011;964;42.606;23.588;2022-09-09T15:41:54;8.90;;;7.73;;